sensor_id;sensor_type;location;lat;lon;timestamp;temperature;humidity
38398;DHT22;24179;52.094;4.408;2022-07-04T00:00:47;14.00;99.90
38398;DHT22;24179;52.094;4.408;2022-07-04T00:03:47;13.90;99.90
38398;DHT22;24179;52.094;4.408;2022-07-04T00:06:48;13.90;99.90
38398;DHT22;24179;52.094;4.408;2022-07-04T00:09:48;13.80;99.90
38398;DHT22;24179;52.094;4.408;2022-07-04T00:12:49;13.80;99.90
38398;DHT22;24179;52.094;4.408;2022-07-04T00:15:49;13.90;99.90
38398;DHT22;24179;52.094;4.408;2022-07-04T00:18:50;13.70;99.90
38398;DHT22;24179;52.094;4.408;2022-07-04T00:21:50;13.60;99.90
38398;DHT22;24179;52.094;4.408;2022-07-04T00:24:51;13.60;99.90
38398;DHT22;24179;52.094;4.408;2022-07-04T00:27:51;13.70;99.90
38398;DHT22;24179;52.094;4.408;2022-07-04T00:30:52;13.70;99.90
38398;DHT22;24179;52.094;4.408;2022-07-04T00:33:52;13.60;99.90
38398;DHT22;24179;52.094;4.408;2022-07-04T00:36:53;13.60;99.90
38398;DHT22;24179;52.094;4.408;2022-07-04T00:39:54;13.60;99.90
38398;DHT22;24179;52.094;4.408;2022-07-04T00:42:59;13.50;99.90
38398;DHT22;24179;52.094;4.408;2022-07-04T00:46:02;13.50;99.90
38398;DHT22;24179;52.094;4.408;2022-07-04T00:49:03;13.40;99.90
38398;DHT22;24179;52.094;4.408;2022-07-04T00:52:04;13.40;99.90
38398;DHT22;24179;52.094;4.408;2022-07-04T00:55:05;13.40;99.90
38398;DHT22;24179;52.094;4.408;2022-07-04T00:58:06;13.40;99.90
38398;DHT22;24179;52.094;4.408;2022-07-04T01:01:07;13.40;99.90
38398;DHT22;24179;52.094;4.408;2022-07-04T01:04:08;13.40;99.90
38398;DHT22;24179;52.094;4.408;2022-07-04T01:07:08;13.30;99.90
38398;DHT22;24179;52.094;4.408;2022-07-04T01:10:11;13.30;99.90
38398;DHT22;24179;52.094;4.408;2022-07-04T01:13:21;13.30;99.90
38398;DHT22;24179;52.094;4.408;2022-07-04T01:16:23;13.30;99.90
38398;DHT22;24179;52.094;4.408;2022-07-04T01:19:24;13.20;99.90
38398;DHT22;24179;52.094;4.408;2022-07-04T01:22:25;13.20;99.90
38398;DHT22;24179;52.094;4.408;2022-07-04T01:25:25;13.20;99.90
38398;DHT22;24179;52.094;4.408;2022-07-04T01:28:26;13.20;99.90
38398;DHT22;24179;52.094;4.408;2022-07-04T01:31:27;13.10;99.90
38398;DHT22;24179;52.094;4.408;2022-07-04T01:34:27;13.10;99.90
38398;DHT22;24179;52.094;4.408;2022-07-04T01:37:27;13.10;99.90
38398;DHT22;24179;52.094;4.408;2022-07-04T01:40:28;13.10;99.90
38398;DHT22;24179;52.094;4.408;2022-07-04T01:43:28;13.10;99.90
38398;DHT22;24179;52.094;4.408;2022-07-04T01:46:29;13.20;99.90
38398;DHT22;24179;52.094;4.408;2022-07-04T01:49:29;13.20;99.90
38398;DHT22;24179;52.094;4.408;2022-07-04T01:52:30;13.10;99.90
38398;DHT22;24179;52.094;4.408;2022-07-04T01:55:30;13.10;99.90
38398;DHT22;24179;52.094;4.408;2022-07-04T01:58:31;13.10;99.90
38398;DHT22;24179;52.094;4.408;2022-07-04T02:01:32;13.10;99.90
38398;DHT22;24179;52.094;4.408;2022-07-04T02:04:32;13.10;99.90
38398;DHT22;24179;52.094;4.408;2022-07-04T02:07:33;13.00;99.90
38398;DHT22;24179;52.094;4.408;2022-07-04T02:10:34;13.00;99.90
38398;DHT22;24179;52.094;4.408;2022-07-04T02:13:34;13.00;99.90
38398;DHT22;24179;52.094;4.408;2022-07-04T02:16:35;13.00;99.90
38398;DHT22;24179;52.094;4.408;2022-07-04T02:19:35;13.00;99.90
38398;DHT22;24179;52.094;4.408;2022-07-04T02:22:36;13.00;99.90
38398;DHT22;24179;52.094;4.408;2022-07-04T02:25:36;13.20;99.90
38398;DHT22;24179;52.094;4.408;2022-07-04T02:28:37;13.60;99.90
38398;DHT22;24179;52.094;4.408;2022-07-04T02:31:37;13.90;99.90
38398;DHT22;24179;52.094;4.408;2022-07-04T02:34:39;14.00;99.90
38398;DHT22;24179;52.094;4.408;2022-07-04T02:37:39;14.10;99.90
38398;DHT22;24179;52.094;4.408;2022-07-04T02:40:40;14.10;99.90
38398;DHT22;24179;52.094;4.408;2022-07-04T02:43:41;14.00;99.90
38398;DHT22;24179;52.094;4.408;2022-07-04T02:46:41;13.90;99.90
38398;DHT22;24179;52.094;4.408;2022-07-04T02:49:42;13.80;99.90
38398;DHT22;24179;52.094;4.408;2022-07-04T02:52:42;13.80;99.90
38398;DHT22;24179;52.094;4.408;2022-07-04T02:55:43;13.80;99.90
38398;DHT22;24179;52.094;4.408;2022-07-04T02:58:43;13.70;99.90
38398;DHT22;24179;52.094;4.408;2022-07-04T03:01:44;13.70;99.90
38398;DHT22;24179;52.094;4.408;2022-07-04T03:04:44;13.80;99.90
38398;DHT22;24179;52.094;4.408;2022-07-04T03:07:45;14.00;99.90
38398;DHT22;24179;52.094;4.408;2022-07-04T03:10:45;14.10;99.90
38398;DHT22;24179;52.094;4.408;2022-07-04T03:13:46;14.30;99.90
38398;DHT22;24179;52.094;4.408;2022-07-04T03:16:46;14.30;99.90
38398;DHT22;24179;52.094;4.408;2022-07-04T03:19:47;14.30;99.90
38398;DHT22;24179;52.094;4.408;2022-07-04T03:22:47;14.20;99.90
38398;DHT22;24179;52.094;4.408;2022-07-04T03:25:48;14.10;99.90
38398;DHT22;24179;52.094;4.408;2022-07-04T03:28:49;14.10;99.90
38398;DHT22;24179;52.094;4.408;2022-07-04T03:31:50;14.20;99.90
38398;DHT22;24179;52.094;4.408;2022-07-04T03:34:50;14.20;99.90
38398;DHT22;24179;52.094;4.408;2022-07-04T03:37:51;14.30;99.90
38398;DHT22;24179;52.094;4.408;2022-07-04T03:40:51;14.30;99.90
38398;DHT22;24179;52.094;4.408;2022-07-04T03:43:52;14.30;99.90
38398;DHT22;24179;52.094;4.408;2022-07-04T03:46:52;14.20;99.90
38398;DHT22;24179;52.094;4.408;2022-07-04T03:49:53;14.30;99.90
38398;DHT22;24179;52.094;4.408;2022-07-04T03:52:53;14.20;99.90
38398;DHT22;24179;52.094;4.408;2022-07-04T03:55:54;14.30;99.90
38398;DHT22;24179;52.094;4.408;2022-07-04T03:58:54;14.30;99.90
38398;DHT22;24179;52.094;4.408;2022-07-04T04:01:55;14.40;99.90
38398;DHT22;24179;52.094;4.408;2022-07-04T04:04:55;14.50;99.90
38398;DHT22;24179;52.094;4.408;2022-07-04T04:08:14;14.40;99.90
38398;DHT22;24179;52.094;4.408;2022-07-04T04:11:14;14.30;99.90
38398;DHT22;24179;52.094;4.408;2022-07-04T04:14:15;14.30;99.90
38398;DHT22;24179;52.094;4.408;2022-07-04T04:17:15;14.20;99.90
38398;DHT22;24179;52.094;4.408;2022-07-04T04:20:16;14.20;99.90
38398;DHT22;24179;52.094;4.408;2022-07-04T04:23:16;14.10;99.90
38398;DHT22;24179;52.094;4.408;2022-07-04T04:26:17;14.10;99.90
38398;DHT22;24179;52.094;4.408;2022-07-04T04:29:17;14.10;99.90
38398;DHT22;24179;52.094;4.408;2022-07-04T04:32:18;14.10;99.90
38398;DHT22;24179;52.094;4.408;2022-07-04T04:35:19;14.10;99.90
38398;DHT22;24179;52.094;4.408;2022-07-04T04:38:19;14.20;99.90
38398;DHT22;24179;52.094;4.408;2022-07-04T04:41:20;14.20;99.90
38398;DHT22;24179;52.094;4.408;2022-07-04T04:44:20;14.30;99.90
38398;DHT22;24179;52.094;4.408;2022-07-04T04:47:22;14.60;99.90
38398;DHT22;24179;52.094;4.408;2022-07-04T04:50:23;14.90;99.90
38398;DHT22;24179;52.094;4.408;2022-07-04T04:53:23;15.30;99.90
38398;DHT22;24179;52.094;4.408;2022-07-04T04:56:25;15.60;99.90
38398;DHT22;24179;52.094;4.408;2022-07-04T04:59:27;15.80;99.90
38398;DHT22;24179;52.094;4.408;2022-07-04T05:02:27;16.00;99.90
38398;DHT22;24179;52.094;4.408;2022-07-04T05:05:28;16.00;99.90
38398;DHT22;24179;52.094;4.408;2022-07-04T05:08:28;16.00;99.90
38398;DHT22;24179;52.094;4.408;2022-07-04T05:11:29;16.10;99.90
38398;DHT22;24179;52.094;4.408;2022-07-04T05:14:29;16.20;99.90
38398;DHT22;24179;52.094;4.408;2022-07-04T05:17:30;16.40;99.90
38398;DHT22;24179;52.094;4.408;2022-07-04T05:20:30;16.70;99.90
38398;DHT22;24179;52.094;4.408;2022-07-04T05:23:31;17.00;99.90
38398;DHT22;24179;52.094;4.408;2022-07-04T05:26:31;17.20;99.90
38398;DHT22;24179;52.094;4.408;2022-07-04T05:29:32;17.30;99.90
38398;DHT22;24179;52.094;4.408;2022-07-04T05:32:32;17.40;99.90
38398;DHT22;24179;52.094;4.408;2022-07-04T05:35:33;17.50;99.90
38398;DHT22;24179;52.094;4.408;2022-07-04T05:38:33;17.50;99.90
38398;DHT22;24179;52.094;4.408;2022-07-04T05:41:34;17.40;99.90
38398;DHT22;24179;52.094;4.408;2022-07-04T05:44:34;17.20;99.90
38398;DHT22;24179;52.094;4.408;2022-07-04T05:47:35;17.20;99.90
38398;DHT22;24179;52.094;4.408;2022-07-04T05:50:36;17.20;99.90
38398;DHT22;24179;52.094;4.408;2022-07-04T05:53:36;17.10;99.90
38398;DHT22;24179;52.094;4.408;2022-07-04T05:56:37;17.20;99.90
38398;DHT22;24179;52.094;4.408;2022-07-04T05:59:39;17.30;99.90
38398;DHT22;24179;52.094;4.408;2022-07-04T06:02:40;17.30;99.90
38398;DHT22;24179;52.094;4.408;2022-07-04T06:05:41;17.30;99.90
38398;DHT22;24179;52.094;4.408;2022-07-04T06:08:43;17.30;99.90
38398;DHT22;24179;52.094;4.408;2022-07-04T06:11:44;17.30;99.90
38398;DHT22;24179;52.094;4.408;2022-07-04T06:14:44;17.30;99.90
38398;DHT22;24179;52.094;4.408;2022-07-04T06:17:46;17.40;99.90
38398;DHT22;24179;52.094;4.408;2022-07-04T06:20:46;17.50;99.90
38398;DHT22;24179;52.094;4.408;2022-07-04T06:23:47;17.50;99.90
38398;DHT22;24179;52.094;4.408;2022-07-04T06:26:47;17.60;99.90
38398;DHT22;24179;52.094;4.408;2022-07-04T06:29:48;17.70;99.90
38398;DHT22;24179;52.094;4.408;2022-07-04T06:32:50;17.80;99.90
38398;DHT22;24179;52.094;4.408;2022-07-04T06:35:50;17.90;99.90
38398;DHT22;24179;52.094;4.408;2022-07-04T06:38:59;18.10;99.90
38398;DHT22;24179;52.094;4.408;2022-07-04T06:41:59;18.70;99.90
38398;DHT22;24179;52.094;4.408;2022-07-04T06:45:00;19.20;99.90
38398;DHT22;24179;52.094;4.408;2022-07-04T06:48:01;19.50;99.90
38398;DHT22;24179;52.094;4.408;2022-07-04T06:51:01;19.80;99.90
38398;DHT22;24179;52.094;4.408;2022-07-04T06:54:02;20.50;99.90
38398;DHT22;24179;52.094;4.408;2022-07-04T06:57:02;21.00;99.90
38398;DHT22;24179;52.094;4.408;2022-07-04T07:00:07;21.60;99.90
38398;DHT22;24179;52.094;4.408;2022-07-04T07:03:07;21.90;99.90
38398;DHT22;24179;52.094;4.408;2022-07-04T07:06:08;22.30;99.90
38398;DHT22;24179;52.094;4.408;2022-07-04T07:09:08;22.40;99.90
38398;DHT22;24179;52.094;4.408;2022-07-04T07:12:09;23.30;99.90
38398;DHT22;24179;52.094;4.408;2022-07-04T07:15:09;23.80;99.90
38398;DHT22;24179;52.094;4.408;2022-07-04T07:18:10;23.80;99.90
38398;DHT22;24179;52.094;4.408;2022-07-04T07:21:11;23.90;99.90
38398;DHT22;24179;52.094;4.408;2022-07-04T07:24:11;23.80;99.90
38398;DHT22;24179;52.094;4.408;2022-07-04T07:27:12;23.70;99.90
38398;DHT22;24179;52.094;4.408;2022-07-04T07:30:12;24.00;99.90
38398;DHT22;24179;52.094;4.408;2022-07-04T07:33:13;24.20;99.90
38398;DHT22;24179;52.094;4.408;2022-07-04T07:36:14;23.90;99.90
38398;DHT22;24179;52.094;4.408;2022-07-04T07:39:14;23.60;99.90
38398;DHT22;24179;52.094;4.408;2022-07-04T07:42:15;24.00;99.90
38398;DHT22;24179;52.094;4.408;2022-07-04T07:45:16;23.90;99.90
38398;DHT22;24179;52.094;4.408;2022-07-04T07:48:16;24.20;99.90
38398;DHT22;24179;52.094;4.408;2022-07-04T07:51:17;24.30;99.90
38398;DHT22;24179;52.094;4.408;2022-07-04T07:54:17;24.20;99.90
38398;DHT22;24179;52.094;4.408;2022-07-04T07:57:18;23.80;99.90
38398;DHT22;24179;52.094;4.408;2022-07-04T08:00:18;22.90;99.90
38398;DHT22;24179;52.094;4.408;2022-07-04T08:03:19;22.40;99.90
38398;DHT22;24179;52.094;4.408;2022-07-04T08:06:38;21.80;99.90
38398;DHT22;24179;52.094;4.408;2022-07-04T08:09:39;21.60;99.90
38398;DHT22;24179;52.094;4.408;2022-07-04T08:12:40;21.60;99.90
38398;DHT22;24179;52.094;4.408;2022-07-04T08:15:41;22.00;99.90
38398;DHT22;24179;52.094;4.408;2022-07-04T08:18:41;21.90;99.90
38398;DHT22;24179;52.094;4.408;2022-07-04T08:21:42;22.00;99.90
38398;DHT22;24179;52.094;4.408;2022-07-04T08:24:43;22.30;99.90
38398;DHT22;24179;52.094;4.408;2022-07-04T08:27:43;22.70;99.90
38398;DHT22;24179;52.094;4.408;2022-07-04T08:30:44;22.20;99.90
38398;DHT22;24179;52.094;4.408;2022-07-04T08:33:44;21.80;99.90
38398;DHT22;24179;52.094;4.408;2022-07-04T08:36:47;21.90;99.90
38398;DHT22;24179;52.094;4.408;2022-07-04T08:39:47;21.60;99.90
38398;DHT22;24179;52.094;4.408;2022-07-04T08:42:48;21.60;99.90
38398;DHT22;24179;52.094;4.408;2022-07-04T08:45:49;22.00;99.90
38398;DHT22;24179;52.094;4.408;2022-07-04T08:48:50;22.50;99.90
38398;DHT22;24179;52.094;4.408;2022-07-04T08:51:52;22.80;99.90
38398;DHT22;24179;52.094;4.408;2022-07-04T08:54:55;22.80;99.90
38398;DHT22;24179;52.094;4.408;2022-07-04T08:58:14;23.20;99.90
38398;DHT22;24179;52.094;4.408;2022-07-04T09:01:31;23.10;99.90
38398;DHT22;24179;52.094;4.408;2022-07-04T09:04:33;24.20;99.90
38398;DHT22;24179;52.094;4.408;2022-07-04T09:07:33;24.40;99.90
38398;DHT22;24179;52.094;4.408;2022-07-04T09:10:34;23.20;99.90
38398;DHT22;24179;52.094;4.408;2022-07-04T09:13:34;22.30;99.90
38398;DHT22;24179;52.094;4.408;2022-07-04T09:16:35;22.20;99.90
38398;DHT22;24179;52.094;4.408;2022-07-04T09:19:36;23.10;99.90
38398;DHT22;24179;52.094;4.408;2022-07-04T09:22:37;23.40;99.90
38398;DHT22;24179;52.094;4.408;2022-07-04T09:25:37;23.50;99.90
38398;DHT22;24179;52.094;4.408;2022-07-04T09:28:38;23.00;99.90
38398;DHT22;24179;52.094;4.408;2022-07-04T09:31:39;23.30;99.90
38398;DHT22;24179;52.094;4.408;2022-07-04T09:34:53;23.90;99.90
38398;DHT22;24179;52.094;4.408;2022-07-04T09:37:54;23.60;99.90
38398;DHT22;24179;52.094;4.408;2022-07-04T09:40:55;23.60;99.90
38398;DHT22;24179;52.094;4.408;2022-07-04T09:44:14;24.30;99.90
38398;DHT22;24179;52.094;4.408;2022-07-04T09:50:25;25.40;99.60
38398;DHT22;24179;52.094;4.408;2022-07-04T09:53:27;25.70;99.60
38398;DHT22;24179;52.094;4.408;2022-07-04T09:56:40;26.30;98.20
38398;DHT22;24179;52.094;4.408;2022-07-04T09:59:41;26.50;97.60
38398;DHT22;24179;52.094;4.408;2022-07-04T10:02:41;25.90;97.50
38398;DHT22;24179;52.094;4.408;2022-07-04T10:05:44;25.60;98.10
38398;DHT22;24179;52.094;4.408;2022-07-04T10:08:45;25.20;98.90
38398;DHT22;24179;52.094;4.408;2022-07-04T10:11:46;26.10;98.20
38398;DHT22;24179;52.094;4.408;2022-07-04T10:14:46;26.20;97.60
38398;DHT22;24179;52.094;4.408;2022-07-04T10:17:47;26.50;97.70
38398;DHT22;24179;52.094;4.408;2022-07-04T10:20:48;26.50;97.00
38398;DHT22;24179;52.094;4.408;2022-07-04T10:23:51;25.90;97.60
38398;DHT22;24179;52.094;4.408;2022-07-04T10:26:52;25.00;97.90
38398;DHT22;24179;52.094;4.408;2022-07-04T10:29:53;25.50;97.00
38398;DHT22;24179;52.094;4.408;2022-07-04T10:32:54;25.60;97.10
38398;DHT22;24179;52.094;4.408;2022-07-04T10:35:55;25.70;97.00
38398;DHT22;24179;52.094;4.408;2022-07-04T10:38:57;25.90;97.10
38398;DHT22;24179;52.094;4.408;2022-07-04T10:41:59;26.40;96.30
38398;DHT22;24179;52.094;4.408;2022-07-04T10:45:01;26.20;97.10
38398;DHT22;24179;52.094;4.408;2022-07-04T10:48:02;26.90;96.60
38398;DHT22;24179;52.094;4.408;2022-07-04T10:51:03;27.60;96.50
38398;DHT22;24179;52.094;4.408;2022-07-04T10:57:34;26.80;95.80
38398;DHT22;24179;52.094;4.408;2022-07-04T11:00:38;26.20;96.00
38398;DHT22;24179;52.094;4.408;2022-07-04T11:03:48;25.80;95.40
38398;DHT22;24179;52.094;4.408;2022-07-04T11:06:49;26.10;95.30
38398;DHT22;24179;52.094;4.408;2022-07-04T11:13:21;26.70;94.70
38398;DHT22;24179;52.094;4.408;2022-07-04T11:16:22;26.60;94.00
38398;DHT22;24179;52.094;4.408;2022-07-04T11:19:23;27.30;94.80
38398;DHT22;24179;52.094;4.408;2022-07-04T11:22:23;26.50;94.30
38398;DHT22;24179;52.094;4.408;2022-07-04T11:25:24;25.30;93.60
38398;DHT22;24179;52.094;4.408;2022-07-04T11:28:28;25.50;93.40
38398;DHT22;24179;52.094;4.408;2022-07-04T11:31:38;25.70;94.10
38398;DHT22;24179;52.094;4.408;2022-07-04T11:34:39;25.50;93.20
38398;DHT22;24179;52.094;4.408;2022-07-04T11:37:42;25.40;93.30
38398;DHT22;24179;52.094;4.408;2022-07-04T11:40:44;26.10;94.80
38398;DHT22;24179;52.094;4.408;2022-07-04T11:44:04;27.30;93.10
38398;DHT22;24179;52.094;4.408;2022-07-04T11:47:25;27.00;93.20
38398;DHT22;24179;52.094;4.408;2022-07-04T11:51:56;25.10;93.30
38398;DHT22;24179;52.094;4.408;2022-07-04T11:54:56;25.10;95.00
38398;DHT22;24179;52.094;4.408;2022-07-04T11:57:57;24.80;95.10
38398;DHT22;24179;52.094;4.408;2022-07-04T12:00:58;26.10;94.30
38398;DHT22;24179;52.094;4.408;2022-07-04T12:04:10;27.00;93.70
38398;DHT22;24179;52.094;4.408;2022-07-04T12:07:11;28.20;93.70
38398;DHT22;24179;52.094;4.408;2022-07-04T12:10:13;27.10;92.50
38398;DHT22;24179;52.094;4.408;2022-07-04T12:13:14;27.00;92.10
38398;DHT22;24179;52.094;4.408;2022-07-04T12:16:17;26.20;92.70
38398;DHT22;24179;52.094;4.408;2022-07-04T12:19:17;25.90;92.50
38398;DHT22;24179;52.094;4.408;2022-07-04T12:22:25;26.70;93.00
38398;DHT22;24179;52.094;4.408;2022-07-04T12:25:32;27.20;92.10
38398;DHT22;24179;52.094;4.408;2022-07-04T12:28:37;26.70;91.30
38398;DHT22;24179;52.094;4.408;2022-07-04T12:31:38;26.10;91.70
38398;DHT22;24179;52.094;4.408;2022-07-04T12:34:39;25.50;92.30
38398;DHT22;24179;52.094;4.408;2022-07-04T12:37:40;26.60;92.60
38398;DHT22;24179;52.094;4.408;2022-07-04T12:40:51;27.60;92.20
38398;DHT22;24179;52.094;4.408;2022-07-04T12:43:51;26.90;91.90
38398;DHT22;24179;52.094;4.408;2022-07-04T12:46:58;27.50;91.80
38398;DHT22;24179;52.094;4.408;2022-07-04T12:49:58;28.20;91.70
38398;DHT22;24179;52.094;4.408;2022-07-04T12:52:59;27.80;91.10
38398;DHT22;24179;52.094;4.408;2022-07-04T12:56:00;27.90;91.00
38398;DHT22;24179;52.094;4.408;2022-07-04T12:59:01;27.70;91.30
38398;DHT22;24179;52.094;4.408;2022-07-04T13:02:02;27.50;91.80
38398;DHT22;24179;52.094;4.408;2022-07-04T13:05:03;27.70;91.00
38398;DHT22;24179;52.094;4.408;2022-07-04T13:08:04;28.10;91.40
38398;DHT22;24179;52.094;4.408;2022-07-04T13:11:04;28.70;90.60
38398;DHT22;24179;52.094;4.408;2022-07-04T13:14:24;27.60;90.50
38398;DHT22;24179;52.094;4.408;2022-07-04T13:17:25;27.70;90.70
38398;DHT22;24179;52.094;4.408;2022-07-04T13:20:26;27.80;90.20
38398;DHT22;24179;52.094;4.408;2022-07-04T13:23:26;27.80;90.70
38398;DHT22;24179;52.094;4.408;2022-07-04T13:26:27;27.60;90.80
38398;DHT22;24179;52.094;4.408;2022-07-04T13:29:30;26.60;90.60
38398;DHT22;24179;52.094;4.408;2022-07-04T13:32:30;26.40;90.80
38398;DHT22;24179;52.094;4.408;2022-07-04T13:35:33;27.20;91.10
38398;DHT22;24179;52.094;4.408;2022-07-04T13:38:33;27.30;90.70
38398;DHT22;24179;52.094;4.408;2022-07-04T13:41:34;27.60;91.30
38398;DHT22;24179;52.094;4.408;2022-07-04T13:44:34;28.00;91.00
38398;DHT22;24179;52.094;4.408;2022-07-04T13:47:35;28.60;90.00
38398;DHT22;24179;52.094;4.408;2022-07-04T13:50:36;28.10;90.30
38398;DHT22;24179;52.094;4.408;2022-07-04T13:53:38;27.90;88.90
38398;DHT22;24179;52.094;4.408;2022-07-04T13:56:39;28.50;90.60
38398;DHT22;24179;52.094;4.408;2022-07-04T13:59:40;28.70;90.00
38398;DHT22;24179;52.094;4.408;2022-07-04T14:02:40;28.50;89.40
38398;DHT22;24179;52.094;4.408;2022-07-04T14:05:41;28.50;90.40
38398;DHT22;24179;52.094;4.408;2022-07-04T14:08:42;28.30;89.30
38398;DHT22;24179;52.094;4.408;2022-07-04T14:11:42;28.00;90.00
38398;DHT22;24179;52.094;4.408;2022-07-04T14:14:43;27.80;90.30
38398;DHT22;24179;52.094;4.408;2022-07-04T14:17:43;28.90;90.80
38398;DHT22;24179;52.094;4.408;2022-07-04T14:20:44;30.10;90.10
38398;DHT22;24179;52.094;4.408;2022-07-04T14:23:45;30.30;89.00
38398;DHT22;24179;52.094;4.408;2022-07-04T14:26:46;29.10;89.20
38398;DHT22;24179;52.094;4.408;2022-07-04T14:29:47;28.70;89.40
38398;DHT22;24179;52.094;4.408;2022-07-04T14:32:47;29.00;90.00
38398;DHT22;24179;52.094;4.408;2022-07-04T14:35:48;29.00;88.80
38398;DHT22;24179;52.094;4.408;2022-07-04T14:38:48;28.70;89.50
38398;DHT22;24179;52.094;4.408;2022-07-04T14:41:49;28.60;89.10
38398;DHT22;24179;52.094;4.408;2022-07-04T14:44:49;28.90;90.00
38398;DHT22;24179;52.094;4.408;2022-07-04T14:47:50;28.60;89.60
38398;DHT22;24179;52.094;4.408;2022-07-04T14:50:50;29.30;90.10
38398;DHT22;24179;52.094;4.408;2022-07-04T14:53:51;28.70;89.90
38398;DHT22;24179;52.094;4.408;2022-07-04T14:56:51;28.60;89.60
38398;DHT22;24179;52.094;4.408;2022-07-04T14:59:53;28.80;90.20
38398;DHT22;24179;52.094;4.408;2022-07-04T15:02:53;29.30;89.30
38398;DHT22;24179;52.094;4.408;2022-07-04T15:05:54;28.60;89.80
38398;DHT22;24179;52.094;4.408;2022-07-04T15:08:54;28.30;89.80
38398;DHT22;24179;52.094;4.408;2022-07-04T15:11:54;28.40;90.00
38398;DHT22;24179;52.094;4.408;2022-07-04T15:14:55;28.00;90.20
38398;DHT22;24179;52.094;4.408;2022-07-04T15:17:55;28.00;89.70
38398;DHT22;24179;52.094;4.408;2022-07-04T15:20:56;28.60;90.30
38398;DHT22;24179;52.094;4.408;2022-07-04T15:24:15;29.20;89.10
38398;DHT22;24179;52.094;4.408;2022-07-04T15:27:16;28.80;89.30
38398;DHT22;24179;52.094;4.408;2022-07-04T15:30:16;29.20;89.40
38398;DHT22;24179;52.094;4.408;2022-07-04T15:33:17;29.00;88.10
38398;DHT22;24179;52.094;4.408;2022-07-04T15:36:17;28.60;89.00
38398;DHT22;24179;52.094;4.408;2022-07-04T15:39:18;28.60;89.30
38398;DHT22;24179;52.094;4.408;2022-07-04T15:42:18;28.60;88.80
38398;DHT22;24179;52.094;4.408;2022-07-04T15:45:19;28.50;87.70
38398;DHT22;24179;52.094;4.408;2022-07-04T15:48:19;28.30;89.10
38398;DHT22;24179;52.094;4.408;2022-07-04T15:51:20;28.80;88.50
38398;DHT22;24179;52.094;4.408;2022-07-04T15:54:20;28.30;89.00
38398;DHT22;24179;52.094;4.408;2022-07-04T15:57:21;28.80;89.50
38398;DHT22;24179;52.094;4.408;2022-07-04T16:00:21;28.90;88.40
38398;DHT22;24179;52.094;4.408;2022-07-04T16:03:22;29.30;88.60
38398;DHT22;24179;52.094;4.408;2022-07-04T16:06:22;28.80;88.20
38398;DHT22;24179;52.094;4.408;2022-07-04T16:09:23;28.30;88.80
38398;DHT22;24179;52.094;4.408;2022-07-04T16:12:23;28.10;89.60
38398;DHT22;24179;52.094;4.408;2022-07-04T16:15:24;28.10;88.50
38398;DHT22;24179;52.094;4.408;2022-07-04T16:18:24;28.10;89.50
38398;DHT22;24179;52.094;4.408;2022-07-04T16:21:25;28.20;89.50
38398;DHT22;24179;52.094;4.408;2022-07-04T16:24:25;28.50;88.50
38398;DHT22;24179;52.094;4.408;2022-07-04T16:27:26;28.60;88.40
38398;DHT22;24179;52.094;4.408;2022-07-04T16:30:27;28.20;88.30
38398;DHT22;24179;52.094;4.408;2022-07-04T16:33:28;28.40;88.90
38398;DHT22;24179;52.094;4.408;2022-07-04T16:36:28;28.60;88.50
38398;DHT22;24179;52.094;4.408;2022-07-04T16:39:29;28.30;87.70
38398;DHT22;24179;52.094;4.408;2022-07-04T16:42:29;27.60;88.50
38398;DHT22;24179;52.094;4.408;2022-07-04T16:45:30;27.20;89.40
38398;DHT22;24179;52.094;4.408;2022-07-04T16:50:59;25.70;90.40
38398;DHT22;24179;52.094;4.408;2022-07-04T16:54:00;24.40;91.90
38398;DHT22;24179;52.094;4.408;2022-07-04T16:57:00;23.60;92.40
38398;DHT22;24179;52.094;4.408;2022-07-04T17:00:02;22.70;93.70
38398;DHT22;24179;52.094;4.408;2022-07-04T17:03:04;21.90;94.70
38398;DHT22;24179;52.094;4.408;2022-07-04T17:06:05;21.50;95.70
38398;DHT22;24179;52.094;4.408;2022-07-04T17:09:05;21.50;95.90
38398;DHT22;24179;52.094;4.408;2022-07-04T17:12:06;21.20;96.20
38398;DHT22;24179;52.094;4.408;2022-07-04T17:15:07;21.00;97.00
38398;DHT22;24179;52.094;4.408;2022-07-04T17:18:07;21.10;97.10
38398;DHT22;24179;52.094;4.408;2022-07-04T17:21:08;20.80;97.50
38398;DHT22;24179;52.094;4.408;2022-07-04T17:24:08;21.10;98.00
38398;DHT22;24179;52.094;4.408;2022-07-04T17:27:09;21.20;98.40
38398;DHT22;24179;52.094;4.408;2022-07-04T17:30:09;21.10;98.00
38398;DHT22;24179;52.094;4.408;2022-07-04T17:33:11;20.90;98.60
38398;DHT22;24179;52.094;4.408;2022-07-04T17:36:12;20.60;98.90
38398;DHT22;24179;52.094;4.408;2022-07-04T17:39:12;20.30;99.90
38398;DHT22;24179;52.094;4.408;2022-07-04T17:42:13;20.10;99.90
38398;DHT22;24179;52.094;4.408;2022-07-04T17:45:14;20.00;99.90
38398;DHT22;24179;52.094;4.408;2022-07-04T17:48:14;20.00;99.90
38398;DHT22;24179;52.094;4.408;2022-07-04T17:51:15;20.00;99.90
38398;DHT22;24179;52.094;4.408;2022-07-04T17:54:15;20.00;99.90
38398;DHT22;24179;52.094;4.408;2022-07-04T17:57:16;20.00;99.90
38398;DHT22;24179;52.094;4.408;2022-07-04T18:00:16;20.00;99.90
38398;DHT22;24179;52.094;4.408;2022-07-04T18:03:17;20.10;99.90
38398;DHT22;24179;52.094;4.408;2022-07-04T18:06:17;20.10;99.90
38398;DHT22;24179;52.094;4.408;2022-07-04T18:09:18;20.00;99.90
38398;DHT22;24179;52.094;4.408;2022-07-04T18:12:19;19.80;99.90
38398;DHT22;24179;52.094;4.408;2022-07-04T18:15:19;19.70;99.90
38398;DHT22;24179;52.094;4.408;2022-07-04T18:18:19;19.60;99.90
38398;DHT22;24179;52.094;4.408;2022-07-04T18:21:20;19.50;99.90
38398;DHT22;24179;52.094;4.408;2022-07-04T18:24:20;19.60;99.90
38398;DHT22;24179;52.094;4.408;2022-07-04T18:27:21;19.60;99.90
38398;DHT22;24179;52.094;4.408;2022-07-04T18:30:22;19.60;99.90
38398;DHT22;24179;52.094;4.408;2022-07-04T18:33:23;19.50;99.90
38398;DHT22;24179;52.094;4.408;2022-07-04T18:36:24;19.30;99.90
38398;DHT22;24179;52.094;4.408;2022-07-04T18:39:25;19.30;99.90
38398;DHT22;24179;52.094;4.408;2022-07-04T18:42:26;19.20;99.90
38398;DHT22;24179;52.094;4.408;2022-07-04T18:45:45;19.10;99.90
38398;DHT22;24179;52.094;4.408;2022-07-04T18:48:45;19.00;99.90
38398;DHT22;24179;52.094;4.408;2022-07-04T18:51:46;19.00;99.90
38398;DHT22;24179;52.094;4.408;2022-07-04T18:54:46;19.10;99.90
38398;DHT22;24179;52.094;4.408;2022-07-04T18:57:47;18.90;99.90
38398;DHT22;24179;52.094;4.408;2022-07-04T19:00:47;18.80;99.90
38398;DHT22;24179;52.094;4.408;2022-07-04T19:03:48;18.80;99.90
38398;DHT22;24179;52.094;4.408;2022-07-04T19:06:48;18.70;99.90
38398;DHT22;24179;52.094;4.408;2022-07-04T19:09:49;18.60;99.90
38398;DHT22;24179;52.094;4.408;2022-07-04T19:12:49;18.60;99.90
38398;DHT22;24179;52.094;4.408;2022-07-04T19:18:07;18.90;99.90
38398;DHT22;24179;52.094;4.408;2022-07-04T19:21:18;18.30;99.90